Accueil
METAR-TAF:

METAR-TAF

Aéroports :

Aéroport international de Cambridge

Cambridge, Angleterre

latitude: 52-12N, longitude: 000-11E, altitude: 15 m

Observation

Le bulletin a été fait il y a 3 heures et 34 minutes, à 16:50 UTC
Vent 5 kt de sud-est
Température 5°C
Humidité 93%
Pression 1006 hPa
Visibilité 10 km ou plus
Quelques nuages à une hauteur de 4100 ft

METAR: EGSC 161650Z 14005KT 9999 FEW041 05/04 Q1006

Heure: 20:24 (20:24 UTC)

Prévision

Le bulletin a été fait il y a 3 heures et 23 minutes, à 17:01 UTC
Prévision valable du 16 à 18 UTC au 16 à 21 UTC
Vent 10 kt de sud/sud-est
Visibilité 10 km ou plus
Nuages épars à une hauteur de 2500 ft
Temporairement
du 16 à 18 UTC au 16 à 21 UTC
Visibilité: 7000 m
averses de pluie
Probabilité 30% :
Temporairement
du 16 à 18 UTC au 16 à 21 UTC
Nuages fragmentés à une hauteur de 1400 ft

TAF: EGSC 161701Z 1618/1621 16010KT 9999 SCT025 TEMPO 1618/1621 7000 SHRA PROB30 TEMPO 1618/1621 BKN014

Observations et prévisions météorologiques de plus de 4000 aéroports (messages METAR et TAF).

Les stations disponibles sont représentées par des disques jaunes et rouges sur la carte.

Passer la souris dessus pour voir le nom de la station.

Cliquer dessus pour voir les observations et prévisions météorologiques.

Pour changer de carte: cliquez sur les boutons verts avec une croix noire pour zoomer, sur le bouton vert avec un tiret pour effectuer un zoom arrière, ou sur les flèches vertes pour les cartes adjacentes.


METAR-TAF: